Meridian, TX (76665)

9:54 PM CDT on March 26, 2015 (GMT -0500)
Harris 424 Ranch | | Change Station
CLOSE
Current Station
Personal Weather Station
Location: Walnut Springs, TX
Elevation: 810 ft
Nearby Weather Stations

Elev 810 ft 32.13 °N, 97.67 °W | Updated 3 minutes ago

Clear
Clear
48.9 °F
Feels Like 49 °F
N
1.0
Wind Variable Wind from South
Gusts 1.0 mph

Today
High -- | Low -- °F
--% Chance of Precip.
Yesterday
High -- | Low -- °F
Precip. -- in
7:26 AM 7:46 PM
Waxing Crescent, 48% visible
Pressure 30.18 in
Visibility 10.0 miles
Clouds Clear
Windchill 49 °F
Dew Point 36 °F
Humidity 62%
Rainfall 0.00 in
Snow Depth Not available.
UV 0 out of 12
Pollen 9.70 out of 12
Air Quality Not available.
Flu Activity Not available.
METAR KCPT 270235Z AUTO 33006KT 10SM CLR 11/01 A3018 RMK AO2

More Conditions Fewer Conditions

Pressure 30.18 in
Visibility 10.0 miles
Clouds Clear
Windchill 49 °F
Dew Point 36 °F
Humidity 62%
Rainfall 0.00 in
Snow Depth Not available.
UV 0 out of 12
Pollen 9.70 out of 12
Air Quality Not available.
Flu Activity Not available.
METAR KCPT 270235Z AUTO 33006KT 10SM CLR 11/01 A3018 RMK AO2

More Conditions Fewer Conditions

10-Day Weather Forecast

Almanac

Astronomy

Mar. 26, 2015 Rise Set
Actual Time
Civil Twilight
Nautical Twilight
Astronomical Twilight
Moon
Length of Visible Light
Length of Day
Tomorrow will be .
, % of the Moon is Illuminated

Today's Extremes

State Highs State Lows

Community

WunderPhotos

Upload Photos

1,808,689 photos uploaded!

WunderBlogs® & News

Nearby

Air Quality

  Air Quality AQ Index Pollutant
Not available.

Snow Depth

Station Depth Elevation

Earthquake Activity

City Distance Mag. Time & Date
Minimum magnitude displayed is 2.5.

Coastal Water Temperatures

Place Temperature

Stations

Nearby Weather Stations

Station Location Temp. Windchill Dew Point Humidity Wind Precip. Elev Updated Type